sensor_id;sensor_type;location;lat;lon;timestamp;P1;durP1;ratioP1;P2;durP2;ratioP2
81223;SDS011;70698;44.402;18.522;2023-07-13T00:00:34;8.40;;;5.97;;
81223;SDS011;70698;44.402;18.522;2023-07-13T00:03:01;8.43;;;6.30;;
81223;SDS011;70698;44.402;18.522;2023-07-13T00:05:28;9.40;;;6.32;;
81223;SDS011;70698;44.402;18.522;2023-07-13T00:07:54;12.48;;;6.28;;
81223;SDS011;70698;44.402;18.522;2023-07-13T00:10:20;14.80;;;7.05;;
81223;SDS011;70698;44.402;18.522;2023-07-13T00:12:46;12.05;;;6.82;;
81223;SDS011;70698;44.402;18.522;2023-07-13T00:15:20;7.75;;;5.65;;
81223;SDS011;70698;44.402;18.522;2023-07-13T00:17:48;12.23;;;6.13;;
81223;SDS011;70698;44.402;18.522;2023-07-13T00:20:18;11.63;;;6.07;;
81223;SDS011;70698;44.402;18.522;2023-07-13T00:22:47;6.80;;;5.13;;
81223;SDS011;70698;44.402;18.522;2023-07-13T00:25:14;12.07;;;6.35;;
81223;SDS011;70698;44.402;18.522;2023-07-13T00:27:41;13.80;;;6.28;;
81223;SDS011;70698;44.402;18.522;2023-07-13T00:30:09;12.07;;;5.97;;
81223;SDS011;70698;44.402;18.522;2023-07-13T00:32:35;6.85;;;5.03;;
81223;SDS011;70698;44.402;18.522;2023-07-13T00:35:01;11.80;;;5.60;;
81223;SDS011;70698;44.402;18.522;2023-07-13T00:37:28;11.80;;;6.10;;
81223;SDS011;70698;44.402;18.522;2023-07-13T00:39:55;10.02;;;6.00;;
81223;SDS011;70698;44.402;18.522;2023-07-13T00:42:21;13.40;;;6.00;;
81223;SDS011;70698;44.402;18.522;2023-07-13T00:45:06;12.18;;;5.38;;
81223;SDS011;70698;44.402;18.522;2023-07-13T00:47:39;12.10;;;5.63;;
81223;SDS011;70698;44.402;18.522;2023-07-13T00:50:06;8.77;;;6.00;;
81223;SDS011;70698;44.402;18.522;2023-07-13T00:52:35;8.50;;;5.50;;
81223;SDS011;70698;44.402;18.522;2023-07-13T00:55:02;11.38;;;6.13;;
81223;SDS011;70698;44.402;18.522;2023-07-13T00:57:29;10.88;;;5.90;;
81223;SDS011;70698;44.402;18.522;2023-07-13T00:59:55;11.48;;;6.38;;
81223;SDS011;70698;44.402;18.522;2023-07-13T01:02:25;9.68;;;5.53;;
81223;SDS011;70698;44.402;18.522;2023-07-13T01:04:55;14.85;;;6.20;;
81223;SDS011;70698;44.402;18.522;2023-07-13T01:07:22;7.57;;;5.35;;
81223;SDS011;70698;44.402;18.522;2023-07-13T01:09:48;7.35;;;4.65;;
81223;SDS011;70698;44.402;18.522;2023-07-13T01:12:13;7.20;;;5.57;;
81223;SDS011;70698;44.402;18.522;2023-07-13T01:14:39;7.63;;;5.20;;
81223;SDS011;70698;44.402;18.522;2023-07-13T01:17:07;11.52;;;5.70;;
81223;SDS011;70698;44.402;18.522;2023-07-13T01:19:37;9.02;;;5.45;;
81223;SDS011;70698;44.402;18.522;2023-07-13T01:22:07;7.95;;;5.28;;
81223;SDS011;70698;44.402;18.522;2023-07-13T01:24:35;9.15;;;5.65;;
81223;SDS011;70698;44.402;18.522;2023-07-13T01:27:02;8.98;;;5.90;;
81223;SDS011;70698;44.402;18.522;2023-07-13T01:29:29;9.00;;;5.65;;
81223;SDS011;70698;44.402;18.522;2023-07-13T01:31:56;8.20;;;5.95;;
81223;SDS011;70698;44.402;18.522;2023-07-13T01:34:24;7.95;;;5.60;;
81223;SDS011;70698;44.402;18.522;2023-07-13T01:36:50;11.02;;;5.35;;
81223;SDS011;70698;44.402;18.522;2023-07-13T01:39:20;8.77;;;5.22;;
81223;SDS011;70698;44.402;18.522;2023-07-13T01:41:47;9.43;;;5.68;;
81223;SDS011;70698;44.402;18.522;2023-07-13T01:44:13;7.45;;;5.60;;
81223;SDS011;70698;44.402;18.522;2023-07-13T01:46:39;6.13;;;5.07;;
81223;SDS011;70698;44.402;18.522;2023-07-13T01:49:04;8.93;;;4.90;;
81223;SDS011;70698;44.402;18.522;2023-07-13T01:51:30;8.23;;;5.70;;
81223;SDS011;70698;44.402;18.522;2023-07-13T01:53:56;6.43;;;4.63;;
81223;SDS011;70698;44.402;18.522;2023-07-13T01:56:22;8.05;;;4.78;;
81223;SDS011;70698;44.402;18.522;2023-07-13T01:58:48;6.07;;;4.57;;
81223;SDS011;70698;44.402;18.522;2023-07-13T02:01:14;7.18;;;4.72;;
81223;SDS011;70698;44.402;18.522;2023-07-13T02:03:40;5.93;;;4.60;;
81223;SDS011;70698;44.402;18.522;2023-07-13T02:06:05;9.05;;;4.50;;
81223;SDS011;70698;44.402;18.522;2023-07-13T02:08:32;7.13;;;4.90;;
81223;SDS011;70698;44.402;18.522;2023-07-13T02:10:58;7.50;;;4.55;;
81223;SDS011;70698;44.402;18.522;2023-07-13T02:13:24;7.53;;;4.70;;
81223;SDS011;70698;44.402;18.522;2023-07-13T02:15:51;8.63;;;5.10;;
81223;SDS011;70698;44.402;18.522;2023-07-13T02:18:16;11.07;;;5.30;;
81223;SDS011;70698;44.402;18.522;2023-07-13T02:20:43;7.20;;;5.50;;
81223;SDS011;70698;44.402;18.522;2023-07-13T02:23:09;7.90;;;5.38;;
81223;SDS011;70698;44.402;18.522;2023-07-13T02:25:35;7.20;;;5.07;;
81223;SDS011;70698;44.402;18.522;2023-07-13T02:28:01;7.93;;;5.32;;
81223;SDS011;70698;44.402;18.522;2023-07-13T02:30:27;9.65;;;5.75;;
81223;SDS011;70698;44.402;18.522;2023-07-13T02:32:57;10.40;;;5.68;;
81223;SDS011;70698;44.402;18.522;2023-07-13T02:37:48;9.18;;;5.57;;
81223;SDS011;70698;44.402;18.522;2023-07-13T02:40:14;12.18;;;6.28;;
81223;SDS011;70698;44.402;18.522;2023-07-13T02:42:40;13.25;;;5.65;;
81223;SDS011;70698;44.402;18.522;2023-07-13T02:45:07;9.25;;;6.25;;
81223;SDS011;70698;44.402;18.522;2023-07-13T02:47:34;9.25;;;5.82;;
81223;SDS011;70698;44.402;18.522;2023-07-13T02:50:00;9.85;;;5.93;;
81223;SDS011;70698;44.402;18.522;2023-07-13T02:52:26;14.52;;;5.80;;
81223;SDS011;70698;44.402;18.522;2023-07-13T02:54:52;11.80;;;6.13;;
81223;SDS011;70698;44.402;18.522;2023-07-13T02:57:18;13.50;;;6.50;;
81223;SDS011;70698;44.402;18.522;2023-07-13T02:59:44;10.10;;;6.00;;
81223;SDS011;70698;44.402;18.522;2023-07-13T03:02:09;13.73;;;6.07;;
81223;SDS011;70698;44.402;18.522;2023-07-13T03:04:36;12.70;;;6.40;;
81223;SDS011;70698;44.402;18.522;2023-07-13T03:07:02;12.85;;;5.93;;
81223;SDS011;70698;44.402;18.522;2023-07-13T03:09:34;10.43;;;6.10;;
81223;SDS011;70698;44.402;18.522;2023-07-13T03:12:01;10.73;;;6.22;;
81223;SDS011;70698;44.402;18.522;2023-07-13T03:14:30;11.95;;;5.35;;
81223;SDS011;70698;44.402;18.522;2023-07-13T03:16:57;10.25;;;5.25;;
81223;SDS011;70698;44.402;18.522;2023-07-13T03:19:26;10.68;;;5.68;;
81223;SDS011;70698;44.402;18.522;2023-07-13T03:21:53;14.40;;;6.10;;
81223;SDS011;70698;44.402;18.522;2023-07-13T03:24:18;9.30;;;5.00;;
81223;SDS011;70698;44.402;18.522;2023-07-13T03:26:45;10.73;;;5.55;;
81223;SDS011;70698;44.402;18.522;2023-07-13T03:29:11;11.15;;;5.78;;
81223;SDS011;70698;44.402;18.522;2023-07-13T03:31:38;9.05;;;5.90;;
81223;SDS011;70698;44.402;18.522;2023-07-13T03:34:03;11.15;;;6.20;;
81223;SDS011;70698;44.402;18.522;2023-07-13T03:36:30;11.60;;;5.88;;
81223;SDS011;70698;44.402;18.522;2023-07-13T03:39:02;13.35;;;6.55;;
81223;SDS011;70698;44.402;18.522;2023-07-13T03:41:45;10.82;;;6.07;;
81223;SDS011;70698;44.402;18.522;2023-07-13T03:44:12;13.35;;;6.53;;
81223;SDS011;70698;44.402;18.522;2023-07-13T03:46:38;14.65;;;6.50;;
81223;SDS011;70698;44.402;18.522;2023-07-13T03:49:04;12.75;;;6.68;;
81223;SDS011;70698;44.402;18.522;2023-07-13T03:51:31;12.32;;;6.75;;
81223;SDS011;70698;44.402;18.522;2023-07-13T03:53:59;10.68;;;6.72;;
81223;SDS011;70698;44.402;18.522;2023-07-13T03:56:25;13.68;;;6.93;;
81223;SDS011;70698;44.402;18.522;2023-07-13T03:58:52;11.43;;;7.75;;
81223;SDS011;70698;44.402;18.522;2023-07-13T04:01:20;13.30;;;7.18;;
81223;SDS011;70698;44.402;18.522;2023-07-13T04:03:47;12.68;;;6.90;;
81223;SDS011;70698;44.402;18.522;2023-07-13T04:06:16;11.23;;;7.25;;
81223;SDS011;70698;44.402;18.522;2023-07-13T04:08:48;10.95;;;6.57;;
81223;SDS011;70698;44.402;18.522;2023-07-13T04:11:16;12.73;;;6.95;;
81223;SDS011;70698;44.402;18.522;2023-07-13T04:13:42;13.57;;;7.10;;
81223;SDS011;70698;44.402;18.522;2023-07-13T04:16:08;17.25;;;7.35;;
81223;SDS011;70698;44.402;18.522;2023-07-13T04:18:33;11.48;;;7.03;;
81223;SDS011;70698;44.402;18.522;2023-07-13T04:20:59;13.90;;;7.00;;
81223;SDS011;70698;44.402;18.522;2023-07-13T04:23:25;12.98;;;7.20;;
81223;SDS011;70698;44.402;18.522;2023-07-13T04:25:51;11.88;;;7.10;;
81223;SDS011;70698;44.402;18.522;2023-07-13T04:28:21;12.68;;;7.60;;
81223;SDS011;70698;44.402;18.522;2023-07-13T04:30:49;13.43;;;7.25;;
81223;SDS011;70698;44.402;18.522;2023-07-13T04:33:15;13.00;;;7.35;;
81223;SDS011;70698;44.402;18.522;2023-07-13T04:35:42;15.25;;;7.80;;
81223;SDS011;70698;44.402;18.522;2023-07-13T04:38:09;12.30;;;7.07;;
81223;SDS011;70698;44.402;18.522;2023-07-13T04:40:36;12.37;;;7.33;;
81223;SDS011;70698;44.402;18.522;2023-07-13T04:43:02;13.43;;;7.75;;
81223;SDS011;70698;44.402;18.522;2023-07-13T04:45:28;14.70;;;7.72;;
81223;SDS011;70698;44.402;18.522;2023-07-13T04:47:56;11.98;;;6.72;;
81223;SDS011;70698;44.402;18.522;2023-07-13T04:50:21;11.90;;;6.32;;
81223;SDS011;70698;44.402;18.522;2023-07-13T04:52:51;15.88;;;6.85;;
81223;SDS011;70698;44.402;18.522;2023-07-13T04:55:17;11.40;;;6.32;;
81223;SDS011;70698;44.402;18.522;2023-07-13T04:57:43;9.38;;;6.35;;
81223;SDS011;70698;44.402;18.522;2023-07-13T05:00:09;11.02;;;6.45;;
81223;SDS011;70698;44.402;18.522;2023-07-13T05:02:37;11.63;;;6.57;;
81223;SDS011;70698;44.402;18.522;2023-07-13T05:05:04;12.73;;;6.50;;
81223;SDS011;70698;44.402;18.522;2023-07-13T05:07:30;9.65;;;6.53;;
81223;SDS011;70698;44.402;18.522;2023-07-13T05:09:58;10.93;;;7.43;;
81223;SDS011;70698;44.402;18.522;2023-07-13T05:12:25;12.80;;;7.30;;
81223;SDS011;70698;44.402;18.522;2023-07-13T05:14:51;10.70;;;7.10;;
81223;SDS011;70698;44.402;18.522;2023-07-13T05:17:17;13.07;;;7.00;;
81223;SDS011;70698;44.402;18.522;2023-07-13T05:19:43;12.30;;;7.22;;
81223;SDS011;70698;44.402;18.522;2023-07-13T05:22:09;10.88;;;7.30;;
81223;SDS011;70698;44.402;18.522;2023-07-13T05:24:34;16.08;;;8.63;;
81223;SDS011;70698;44.402;18.522;2023-07-13T05:27:01;15.80;;;9.70;;
81223;SDS011;70698;44.402;18.522;2023-07-13T05:29:26;16.80;;;9.30;;
81223;SDS011;70698;44.402;18.522;2023-07-13T05:31:52;14.75;;;8.00;;
81223;SDS011;70698;44.402;18.522;2023-07-13T05:34:18;12.32;;;7.20;;
81223;SDS011;70698;44.402;18.522;2023-07-13T05:36:44;12.02;;;6.75;;
81223;SDS011;70698;44.402;18.522;2023-07-13T05:39:10;11.43;;;6.63;;
81223;SDS011;70698;44.402;18.522;2023-07-13T05:41:36;10.82;;;6.40;;
81223;SDS011;70698;44.402;18.522;2023-07-13T05:44:02;9.10;;;6.43;;
81223;SDS011;70698;44.402;18.522;2023-07-13T05:46:28;10.40;;;6.82;;
81223;SDS011;70698;44.402;18.522;2023-07-13T05:48:54;13.18;;;6.68;;
81223;SDS011;70698;44.402;18.522;2023-07-13T05:51:19;13.32;;;6.55;;
81223;SDS011;70698;44.402;18.522;2023-07-13T05:53:45;16.38;;;7.32;;
81223;SDS011;70698;44.402;18.522;2023-07-13T05:56:10;10.38;;;7.05;;
81223;SDS011;70698;44.402;18.522;2023-07-13T05:58:36;14.95;;;7.65;;
81223;SDS011;70698;44.402;18.522;2023-07-13T06:01:04;14.88;;;6.57;;
81223;SDS011;70698;44.402;18.522;2023-07-13T06:03:32;14.05;;;7.28;;
81223;SDS011;70698;44.402;18.522;2023-07-13T06:05:58;12.68;;;7.07;;
81223;SDS011;70698;44.402;18.522;2023-07-13T06:08:25;13.20;;;7.40;;
81223;SDS011;70698;44.402;18.522;2023-07-13T06:10:52;12.15;;;8.30;;
81223;SDS011;70698;44.402;18.522;2023-07-13T06:13:17;13.48;;;7.68;;
81223;SDS011;70698;44.402;18.522;2023-07-13T06:15:50;13.85;;;7.93;;
81223;SDS011;70698;44.402;18.522;2023-07-13T06:18:16;16.08;;;7.68;;
81223;SDS011;70698;44.402;18.522;2023-07-13T06:20:45;10.88;;;7.70;;
81223;SDS011;70698;44.402;18.522;2023-07-13T06:23:10;21.88;;;13.25;;
81223;SDS011;70698;44.402;18.522;2023-07-13T06:25:36;12.48;;;7.63;;
81223;SDS011;70698;44.402;18.522;2023-07-13T06:28:02;12.77;;;8.15;;
81223;SDS011;70698;44.402;18.522;2023-07-13T06:30:27;11.30;;;8.52;;
81223;SDS011;70698;44.402;18.522;2023-07-13T06:32:54;11.95;;;8.20;;
81223;SDS011;70698;44.402;18.522;2023-07-13T06:35:19;12.43;;;7.55;;
81223;SDS011;70698;44.402;18.522;2023-07-13T06:37:45;9.73;;;7.40;;
81223;SDS011;70698;44.402;18.522;2023-07-13T06:40:12;8.93;;;7.53;;
81223;SDS011;70698;44.402;18.522;2023-07-13T06:42:38;9.93;;;7.82;;
81223;SDS011;70698;44.402;18.522;2023-07-13T06:45:04;15.88;;;8.35;;
81223;SDS011;70698;44.402;18.522;2023-07-13T06:47:30;12.55;;;8.60;;
81223;SDS011;70698;44.402;18.522;2023-07-13T06:49:55;15.27;;;8.82;;
81223;SDS011;70698;44.402;18.522;2023-07-13T06:52:22;16.03;;;8.77;;
81223;SDS011;70698;44.402;18.522;2023-07-13T06:54:48;12.20;;;8.68;;
81223;SDS011;70698;44.402;18.522;2023-07-13T06:57:13;12.65;;;8.18;;
81223;SDS011;70698;44.402;18.522;2023-07-13T06:59:39;14.50;;;8.77;;
81223;SDS011;70698;44.402;18.522;2023-07-13T07:02:05;12.88;;;8.77;;
81223;SDS011;70698;44.402;18.522;2023-07-13T07:04:31;13.55;;;8.98;;
81223;SDS011;70698;44.402;18.522;2023-07-13T07:06:57;11.00;;;8.65;;
81223;SDS011;70698;44.402;18.522;2023-07-13T07:09:22;12.40;;;7.57;;
81223;SDS011;70698;44.402;18.522;2023-07-13T07:11:48;12.00;;;8.00;;
81223;SDS011;70698;44.402;18.522;2023-07-13T07:14:13;13.43;;;8.65;;
81223;SDS011;70698;44.402;18.522;2023-07-13T07:16:39;11.50;;;8.00;;
81223;SDS011;70698;44.402;18.522;2023-07-13T07:19:05;15.27;;;9.02;;
81223;SDS011;70698;44.402;18.522;2023-07-13T07:21:30;9.85;;;7.45;;
81223;SDS011;70698;44.402;18.522;2023-07-13T07:23:56;10.75;;;7.30;;
81223;SDS011;70698;44.402;18.522;2023-07-13T07:26:22;11.48;;;7.25;;
81223;SDS011;70698;44.402;18.522;2023-07-13T07:28:48;12.82;;;7.82;;
81223;SDS011;70698;44.402;18.522;2023-07-13T07:31:14;9.55;;;7.95;;
81223;SDS011;70698;44.402;18.522;2023-07-13T07:33:39;11.27;;;8.07;;
81223;SDS011;70698;44.402;18.522;2023-07-13T07:36:05;12.52;;;7.70;;
81223;SDS011;70698;44.402;18.522;2023-07-13T07:38:31;13.30;;;7.20;;
81223;SDS011;70698;44.402;18.522;2023-07-13T07:40:56;10.38;;;7.38;;
81223;SDS011;70698;44.402;18.522;2023-07-13T07:43:22;13.57;;;7.40;;
81223;SDS011;70698;44.402;18.522;2023-07-13T07:45:47;14.10;;;7.22;;
81223;SDS011;70698;44.402;18.522;2023-07-13T07:48:13;12.05;;;7.38;;
81223;SDS011;70698;44.402;18.522;2023-07-13T07:50:39;9.48;;;6.95;;
81223;SDS011;70698;44.402;18.522;2023-07-13T07:53:06;15.85;;;7.75;;
81223;SDS011;70698;44.402;18.522;2023-07-13T07:55:35;11.30;;;6.97;;
81223;SDS011;70698;44.402;18.522;2023-07-13T07:58:01;12.20;;;7.20;;
81223;SDS011;70698;44.402;18.522;2023-07-13T08:00:27;12.15;;;7.07;;
81223;SDS011;70698;44.402;18.522;2023-07-13T08:02:56;11.45;;;7.25;;
81223;SDS011;70698;44.402;18.522;2023-07-13T08:05:21;10.35;;;7.60;;
81223;SDS011;70698;44.402;18.522;2023-07-13T08:07:47;12.57;;;7.80;;
81223;SDS011;70698;44.402;18.522;2023-07-13T08:10:13;11.02;;;7.40;;
81223;SDS011;70698;44.402;18.522;2023-07-13T08:12:39;13.35;;;8.05;;
81223;SDS011;70698;44.402;18.522;2023-07-13T08:15:06;12.25;;;7.47;;
81223;SDS011;70698;44.402;18.522;2023-07-13T08:17:36;15.10;;;8.07;;
81223;SDS011;70698;44.402;18.522;2023-07-13T08:20:02;12.63;;;8.68;;
81223;SDS011;70698;44.402;18.522;2023-07-13T08:22:28;15.80;;;8.18;;
81223;SDS011;70698;44.402;18.522;2023-07-13T08:24:53;12.30;;;7.32;;
81223;SDS011;70698;44.402;18.522;2023-07-13T08:27:22;13.27;;;7.65;;
81223;SDS011;70698;44.402;18.522;2023-07-13T08:29:49;11.45;;;6.80;;
81223;SDS011;70698;44.402;18.522;2023-07-13T08:32:15;11.57;;;7.32;;
81223;SDS011;70698;44.402;18.522;2023-07-13T08:34:42;11.95;;;7.78;;
81223;SDS011;70698;44.402;18.522;2023-07-13T08:37:07;13.02;;;7.55;;
81223;SDS011;70698;44.402;18.522;2023-07-13T08:39:34;10.20;;;7.40;;
81223;SDS011;70698;44.402;18.522;2023-07-13T08:42:05;15.02;;;7.93;;
81223;SDS011;70698;44.402;18.522;2023-07-13T08:44:43;12.75;;;7.32;;
81223;SDS011;70698;44.402;18.522;2023-07-13T08:47:22;18.98;;;8.05;;
81223;SDS011;70698;44.402;18.522;2023-07-13T08:49:49;14.27;;;8.32;;
81223;SDS011;70698;44.402;18.522;2023-07-13T08:52:30;12.07;;;8.95;;
81223;SDS011;70698;44.402;18.522;2023-07-13T08:55:02;15.05;;;8.70;;
81223;SDS011;70698;44.402;18.522;2023-07-13T08:57:35;12.38;;;8.35;;
81223;SDS011;70698;44.402;18.522;2023-07-13T09:00:01;11.80;;;8.45;;
81223;SDS011;70698;44.402;18.522;2023-07-13T09:05:04;11.20;;;7.90;;
81223;SDS011;70698;44.402;18.522;2023-07-13T09:08:24;12.32;;;7.97;;
81223;SDS011;70698;44.402;18.522;2023-07-13T09:10:44;17.05;;;8.32;;
81223;SDS011;70698;44.402;18.522;2023-07-13T09:13:28;11.18;;;7.88;;
81223;SDS011;70698;44.402;18.522;2023-07-13T09:15:59;10.27;;;7.78;;
81223;SDS011;70698;44.402;18.522;2023-07-13T09:18:30;12.88;;;8.27;;
81223;SDS011;70698;44.402;18.522;2023-07-13T09:21:15;12.38;;;8.70;;
81223;SDS011;70698;44.402;18.522;2023-07-13T09:26:19;19.17;;;10.50;;
81223;SDS011;70698;44.402;18.522;2023-07-13T09:28:51;14.77;;;10.60;;
81223;SDS011;70698;44.402;18.522;2023-07-13T09:31:39;19.27;;;11.68;;
81223;SDS011;70698;44.402;18.522;2023-07-13T09:34:11;18.63;;;11.10;;
81223;SDS011;70698;44.402;18.522;2023-07-13T09:36:38;18.92;;;11.02;;
81223;SDS011;70698;44.402;18.522;2023-07-13T09:44:15;23.13;;;11.30;;
81223;SDS011;70698;44.402;18.522;2023-07-13T09:46:54;13.95;;;10.25;;
81223;SDS011;70698;44.402;18.522;2023-07-13T09:49:27;18.63;;;10.55;;
81223;SDS011;70698;44.402;18.522;2023-07-13T09:51:58;15.07;;;10.70;;
81223;SDS011;70698;44.402;18.522;2023-07-13T09:54:27;22.73;;;11.38;;
81223;SDS011;70698;44.402;18.522;2023-07-13T09:56:59;20.17;;;11.70;;
81223;SDS011;70698;44.402;18.522;2023-07-13T09:59:30;16.52;;;11.50;;
81223;SDS011;70698;44.402;18.522;2023-07-13T10:01:58;22.20;;;11.85;;
81223;SDS011;70698;44.402;18.522;2023-07-13T10:04:29;19.05;;;11.25;;
81223;SDS011;70698;44.402;18.522;2023-07-13T10:07:07;18.13;;;11.40;;
81223;SDS011;70698;44.402;18.522;2023-07-13T10:09:34;17.58;;;10.77;;
81223;SDS011;70698;44.402;18.522;2023-07-13T10:12:00;17.35;;;10.88;;
81223;SDS011;70698;44.402;18.522;2023-07-13T10:14:26;15.85;;;10.50;;
81223;SDS011;70698;44.402;18.522;2023-07-13T10:17:00;13.23;;;10.75;;
81223;SDS011;70698;44.402;18.522;2023-07-13T10:19:31;14.48;;;10.77;;
81223;SDS011;70698;44.402;18.522;2023-07-13T10:22:05;18.83;;;10.65;;
81223;SDS011;70698;44.402;18.522;2023-07-13T10:25:01;16.75;;;11.35;;
81223;SDS011;70698;44.402;18.522;2023-07-13T10:27:33;16.30;;;10.93;;
81223;SDS011;70698;44.402;18.522;2023-07-13T10:30:11;18.27;;;11.15;;
81223;SDS011;70698;44.402;18.522;2023-07-13T10:32:45;18.25;;;10.73;;
81223;SDS011;70698;44.402;18.522;2023-07-13T10:35:12;17.38;;;11.10;;
81223;SDS011;70698;44.402;18.522;2023-07-13T10:40:18;17.48;;;11.15;;
81223;SDS011;70698;44.402;18.522;2023-07-13T10:42:51;17.85;;;10.98;;
81223;SDS011;70698;44.402;18.522;2023-07-13T10:45:21;18.40;;;10.25;;
81223;SDS011;70698;44.402;18.522;2023-07-13T10:47:48;16.15;;;10.68;;
81223;SDS011;70698;44.402;18.522;2023-07-13T10:50:25;16.52;;;11.10;;
81223;SDS011;70698;44.402;18.522;2023-07-13T10:52:54;18.60;;;11.35;;
81223;SDS011;70698;44.402;18.522;2023-07-13T10:58:22;15.23;;;10.90;;
81223;SDS011;70698;44.402;18.522;2023-07-13T11:00:53;14.45;;;11.15;;
81223;SDS011;70698;44.402;18.522;2023-07-13T11:03:37;16.05;;;11.20;;
81223;SDS011;70698;44.402;18.522;2023-07-13T11:06:14;15.65;;;11.10;;
81223;SDS011;70698;44.402;18.522;2023-07-13T11:09:17;19.95;;;10.60;;
81223;SDS011;70698;44.402;18.522;2023-07-13T11:11:55;16.15;;;11.10;;
81223;SDS011;70698;44.402;18.522;2023-07-13T11:14:31;15.15;;;9.73;;
81223;SDS011;70698;44.402;18.522;2023-07-13T11:22:47;18.05;;;11.10;;
81223;SDS011;70698;44.402;18.522;2023-07-13T11:36:14;16.10;;;11.02;;
81223;SDS011;70698;44.402;18.522;2023-07-13T11:38:47;15.63;;;10.48;;
81223;SDS011;70698;44.402;18.522;2023-07-13T11:41:17;16.50;;;10.25;;
81223;SDS011;70698;44.402;18.522;2023-07-13T11:43:49;17.27;;;10.80;;
81223;SDS011;70698;44.402;18.522;2023-07-13T11:46:26;16.90;;;10.65;;
81223;SDS011;70698;44.402;18.522;2023-07-13T11:48:53;17.80;;;11.07;;
81223;SDS011;70698;44.402;18.522;2023-07-13T11:54:01;17.25;;;10.38;;
81223;SDS011;70698;44.402;18.522;2023-07-13T11:56:30;16.98;;;10.60;;
81223;SDS011;70698;44.402;18.522;2023-07-13T11:59:02;17.48;;;10.55;;
81223;SDS011;70698;44.402;18.522;2023-07-13T12:01:31;16.08;;;10.93;;
81223;SDS011;70698;44.402;18.522;2023-07-13T12:03:59;15.18;;;10.40;;
81223;SDS011;70698;44.402;18.522;2023-07-13T12:06:30;16.05;;;9.75;;
81223;SDS011;70698;44.402;18.522;2023-07-13T12:08:58;20.40;;;11.00;;
81223;SDS011;70698;44.402;18.522;2023-07-13T12:11:26;21.23;;;15.45;;
81223;SDS011;70698;44.402;18.522;2023-07-13T12:13:52;17.17;;;10.98;;
81223;SDS011;70698;44.402;18.522;2023-07-13T12:16:33;19.98;;;11.00;;
81223;SDS011;70698;44.402;18.522;2023-07-13T12:19:00;17.70;;;10.70;;
81223;SDS011;70698;44.402;18.522;2023-07-13T12:21:31;15.50;;;10.57;;
81223;SDS011;70698;44.402;18.522;2023-07-13T12:23:59;16.60;;;11.27;;
81223;SDS011;70698;44.402;18.522;2023-07-13T12:26:27;15.30;;;11.15;;
81223;SDS011;70698;44.402;18.522;2023-07-13T12:28:54;16.10;;;10.52;;
81223;SDS011;70698;44.402;18.522;2023-07-13T12:34:18;19.45;;;10.50;;
81223;SDS011;70698;44.402;18.522;2023-07-13T12:36:56;16.08;;;10.80;;
81223;SDS011;70698;44.402;18.522;2023-07-13T12:42:13;16.25;;;9.77;;
81223;SDS011;70698;44.402;18.522;2023-07-13T12:47:25;15.10;;;9.70;;
81223;SDS011;70698;44.402;18.522;2023-07-13T12:49:56;16.95;;;10.20;;
81223;SDS011;70698;44.402;18.522;2023-07-13T12:52:28;18.45;;;10.90;;
81223;SDS011;70698;44.402;18.522;2023-07-13T12:55:07;17.13;;;10.70;;
81223;SDS011;70698;44.402;18.522;2023-07-13T12:57:57;19.00;;;11.18;;
81223;SDS011;70698;44.402;18.522;2023-07-13T13:03:02;22.75;;;11.70;;
81223;SDS011;70698;44.402;18.522;2023-07-13T13:05:31;20.05;;;11.65;;
81223;SDS011;70698;44.402;18.522;2023-07-13T13:10:24;23.57;;;11.87;;
81223;SDS011;70698;44.402;18.522;2023-07-13T13:12:50;25.87;;;12.03;;
81223;SDS011;70698;44.402;18.522;2023-07-13T13:15:15;21.27;;;11.63;;
81223;SDS011;70698;44.402;18.522;2023-07-13T13:17:42;19.42;;;11.68;;
81223;SDS011;70698;44.402;18.522;2023-07-13T13:20:18;27.45;;;13.18;;
81223;SDS011;70698;44.402;18.522;2023-07-13T13:22:46;20.40;;;11.80;;
81223;SDS011;70698;44.402;18.522;2023-07-13T13:25:12;21.27;;;12.43;;
81223;SDS011;70698;44.402;18.522;2023-07-13T13:27:42;19.70;;;11.23;;
81223;SDS011;70698;44.402;18.522;2023-07-13T13:30:10;22.35;;;10.07;;
81223;SDS011;70698;44.402;18.522;2023-07-13T13:32:41;17.95;;;9.52;;
81223;SDS011;70698;44.402;18.522;2023-07-13T13:35:15;17.33;;;8.90;;
81223;SDS011;70698;44.402;18.522;2023-07-13T13:37:43;20.17;;;9.57;;
81223;SDS011;70698;44.402;18.522;2023-07-13T13:40:20;17.67;;;9.43;;
81223;SDS011;70698;44.402;18.522;2023-07-13T13:42:48;23.00;;;9.88;;
81223;SDS011;70698;44.402;18.522;2023-07-13T13:45:14;21.13;;;8.77;;
81223;SDS011;70698;44.402;18.522;2023-07-13T13:47:41;21.10;;;9.13;;
81223;SDS011;70698;44.402;18.522;2023-07-13T13:50:13;15.95;;;8.90;;
81223;SDS011;70698;44.402;18.522;2023-07-13T13:55:16;15.65;;;8.50;;
81223;SDS011;70698;44.402;18.522;2023-07-13T13:57:46;18.92;;;7.70;;
81223;SDS011;70698;44.402;18.522;2023-07-13T14:02:40;16.73;;;8.20;;
81223;SDS011;70698;44.402;18.522;2023-07-13T14:05:11;19.98;;;8.57;;
81223;SDS011;70698;44.402;18.522;2023-07-13T14:07:39;16.48;;;8.57;;
81223;SDS011;70698;44.402;18.522;2023-07-13T14:10:08;15.80;;;8.25;;
81223;SDS011;70698;44.402;18.522;2023-07-13T14:12:37;14.48;;;7.75;;
81223;SDS011;70698;44.402;18.522;2023-07-13T14:15:03;21.23;;;8.20;;
81223;SDS011;70698;44.402;18.522;2023-07-13T14:19:56;13.18;;;6.82;;
81223;SDS011;70698;44.402;18.522;2023-07-13T14:22:25;16.38;;;7.57;;
81223;SDS011;70698;44.402;18.522;2023-07-13T14:24:55;11.50;;;7.57;;
81223;SDS011;70698;44.402;18.522;2023-07-13T14:27:22;12.48;;;6.70;;
81223;SDS011;70698;44.402;18.522;2023-07-13T14:29:49;11.80;;;7.05;;
81223;SDS011;70698;44.402;18.522;2023-07-13T14:32:15;10.77;;;6.20;;
81223;SDS011;70698;44.402;18.522;2023-07-13T14:37:11;12.88;;;7.43;;
81223;SDS011;70698;44.402;18.522;2023-07-13T14:39:40;14.88;;;8.23;;
81223;SDS011;70698;44.402;18.522;2023-07-13T14:42:08;19.35;;;8.50;;
81223;SDS011;70698;44.402;18.522;2023-07-13T14:44:35;10.77;;;8.60;;
81223;SDS011;70698;44.402;18.522;2023-07-13T14:52:01;17.90;;;8.38;;
81223;SDS011;70698;44.402;18.522;2023-07-13T14:54:36;15.70;;;8.82;;
81223;SDS011;70698;44.402;18.522;2023-07-13T14:57:08;15.48;;;9.20;;
81223;SDS011;70698;44.402;18.522;2023-07-13T14:59:38;13.18;;;8.40;;
81223;SDS011;70698;44.402;18.522;2023-07-13T15:02:09;13.48;;;8.45;;
81223;SDS011;70698;44.402;18.522;2023-07-13T15:04:43;14.88;;;9.27;;
81223;SDS011;70698;44.402;18.522;2023-07-13T15:07:09;16.40;;;10.20;;
81223;SDS011;70698;44.402;18.522;2023-07-13T15:09:36;25.25;;;19.67;;
81223;SDS011;70698;44.402;18.522;2023-07-13T15:12:02;19.60;;;12.27;;
81223;SDS011;70698;44.402;18.522;2023-07-13T15:14:28;15.98;;;9.75;;
81223;SDS011;70698;44.402;18.522;2023-07-13T15:16:54;11.27;;;9.97;;
81223;SDS011;70698;44.402;18.522;2023-07-13T15:19:21;17.02;;;10.63;;
81223;SDS011;70698;44.402;18.522;2023-07-13T15:21:48;16.73;;;10.60;;
81223;SDS011;70698;44.402;18.522;2023-07-13T15:24:15;14.88;;;10.18;;
81223;SDS011;70698;44.402;18.522;2023-07-13T15:26:41;17.23;;;10.23;;
81223;SDS011;70698;44.402;18.522;2023-07-13T15:29:10;20.25;;;10.80;;
81223;SDS011;70698;44.402;18.522;2023-07-13T15:34:08;19.90;;;9.68;;
81223;SDS011;70698;44.402;18.522;2023-07-13T15:36:37;16.52;;;10.05;;